sensor_id;sensor_type;location;lat;lon;timestamp;pressure;altitude;pressure_sealevel;temperature;humidity
63405;BME280;49541;57.840;12.306;2023-06-10T00:01:44;101679.56;;;15.57;33.54
63405;BME280;49541;57.840;12.306;2023-06-10T00:06:47;101690.56;;;15.45;34.43
63405;BME280;49541;57.840;12.306;2023-06-10T00:11:49;101686.75;;;15.47;34.31
63405;BME280;49541;57.840;12.306;2023-06-10T00:16:49;101692.91;;;15.19;35.00
63405;BME280;49541;57.840;12.306;2023-06-10T00:21:50;101686.84;;;15.17;34.79
63405;BME280;49541;57.840;12.306;2023-06-10T00:26:51;101703.78;;;15.27;34.37
63405;BME280;49541;57.840;12.306;2023-06-10T00:31:51;101702.41;;;15.42;34.68
63405;BME280;49541;57.840;12.306;2023-06-10T00:36:53;101702.09;;;15.26;34.99
63405;BME280;49541;57.840;12.306;2023-06-10T00:41:54;101709.72;;;15.30;35.19
63405;BME280;49541;57.840;12.306;2023-06-10T00:46:54;101715.34;;;15.18;34.84
63405;BME280;49541;57.840;12.306;2023-06-10T00:51:55;101710.81;;;15.08;36.11
63405;BME280;49541;57.840;12.306;2023-06-10T00:56:56;101715.34;;;15.18;36.33
63405;BME280;49541;57.840;12.306;2023-06-10T01:01:56;101722.78;;;15.04;35.55
63405;BME280;49541;57.840;12.306;2023-06-10T01:12:26;101726.03;;;14.56;35.92
63405;BME280;49541;57.840;12.306;2023-06-10T01:17:29;101734.63;;;14.39;35.82
63405;BME280;49541;57.840;12.306;2023-06-10T01:22:30;101739.75;;;14.42;36.87
63405;BME280;49541;57.840;12.306;2023-06-10T01:27:36;101730.97;;;14.19;36.34
63405;BME280;49541;57.840;12.306;2023-06-10T01:32:45;101726.84;;;14.14;36.77
63405;BME280;49541;57.840;12.306;2023-06-10T01:37:48;101733.06;;;14.15;37.25
63405;BME280;49541;57.840;12.306;2023-06-10T01:42:49;101724.72;;;14.29;36.48
63405;BME280;49541;57.840;12.306;2023-06-10T01:47:49;101723.13;;;13.73;37.68
63405;BME280;49541;57.840;12.306;2023-06-10T01:52:50;101728.13;;;13.67;38.47
63405;BME280;49541;57.840;12.306;2023-06-10T01:57:50;101740.22;;;13.39;38.57
63405;BME280;49541;57.840;12.306;2023-06-10T02:02:50;101743.00;;;13.26;39.15
63405;BME280;49541;57.840;12.306;2023-06-10T02:07:50;101743.50;;;13.08;39.77
63405;BME280;49541;57.840;12.306;2023-06-10T02:12:51;101752.84;;;13.14;40.40
63405;BME280;49541;57.840;12.306;2023-06-10T02:17:51;101745.44;;;13.06;40.46
63405;BME280;49541;57.840;12.306;2023-06-10T02:22:51;101741.78;;;12.85;41.45
63405;BME280;49541;57.840;12.306;2023-06-10T02:27:52;101741.28;;;12.80;41.39
63405;BME280;49541;57.840;12.306;2023-06-10T02:32:52;101749.25;;;12.57;41.82
63405;BME280;49541;57.840;12.306;2023-06-10T02:37:52;101751.66;;;12.49;43.05
63405;BME280;49541;57.840;12.306;2023-06-10T02:42:52;101760.59;;;12.37;43.23
63405;BME280;49541;57.840;12.306;2023-06-10T02:47:53;101759.09;;;12.21;42.95
63405;BME280;49541;57.840;12.306;2023-06-10T02:52:53;101763.78;;;12.42;44.03
63405;BME280;49541;57.840;12.306;2023-06-10T02:57:53;101768.84;;;12.34;43.19
63405;BME280;49541;57.840;12.306;2023-06-10T03:02:54;101768.03;;;12.09;43.42
63405;BME280;49541;57.840;12.306;2023-06-10T03:07:57;101767.91;;;12.11;44.50
63405;BME280;49541;57.840;12.306;2023-06-10T03:12:57;101764.22;;;11.63;45.00
63405;BME280;49541;57.840;12.306;2023-06-10T03:17:58;101771.88;;;11.81;43.91
63405;BME280;49541;57.840;12.306;2023-06-10T03:22:58;101771.88;;;11.81;45.16
63405;BME280;49541;57.840;12.306;2023-06-10T03:27:59;101768.03;;;11.72;44.04
63405;BME280;49541;57.840;12.306;2023-06-10T03:32:59;101775.25;;;11.83;45.70
63405;BME280;49541;57.840;12.306;2023-06-10T03:38:00;101769.44;;;12.02;44.06
63405;BME280;49541;57.840;12.306;2023-06-10T03:43:00;101778.25;;;11.78;44.65
63405;BME280;49541;57.840;12.306;2023-06-10T03:48:01;101779.63;;;11.97;44.57
63405;BME280;49541;57.840;12.306;2023-06-10T03:53:01;101786.16;;;11.93;44.57
63405;BME280;49541;57.840;12.306;2023-06-10T03:58:01;101789.94;;;12.25;44.32
63405;BME280;49541;57.840;12.306;2023-06-10T04:03:01;101790.63;;;12.16;44.46
63405;BME280;49541;57.840;12.306;2023-06-10T04:08:02;101787.19;;;12.03;44.61
63405;BME280;49541;57.840;12.306;2023-06-10T04:13:02;101790.97;;;12.36;43.31
63405;BME280;49541;57.840;12.306;2023-06-10T04:18:03;101790.81;;;12.73;42.46
63405;BME280;49541;57.840;12.306;2023-06-10T04:23:03;101800.50;;;12.62;42.41
63405;BME280;49541;57.840;12.306;2023-06-10T04:28:04;101807.97;;;12.81;42.42
63405;BME280;49541;57.840;12.306;2023-06-10T04:33:04;101814.13;;;13.40;40.95
63405;BME280;49541;57.840;12.306;2023-06-10T04:38:06;101820.19;;;13.19;40.41
63405;BME280;49541;57.840;12.306;2023-06-10T04:43:06;101828.50;;;13.50;40.24
63405;BME280;49541;57.840;12.306;2023-06-10T04:48:06;101820.72;;;13.47;39.97
63405;BME280;49541;57.840;12.306;2023-06-10T04:53:07;101816.94;;;13.49;40.73
63405;BME280;49541;57.840;12.306;2023-06-10T04:58:08;101822.78;;;13.66;40.38
63405;BME280;49541;57.840;12.306;2023-06-10T05:03:08;101830.34;;;14.04;39.92
63405;BME280;49541;57.840;12.306;2023-06-10T05:08:08;101833.56;;;14.30;39.28
63405;BME280;49541;57.840;12.306;2023-06-10T05:13:09;101834.09;;;14.13;39.33
63405;BME280;49541;57.840;12.306;2023-06-10T05:18:09;101830.19;;;14.61;38.19
63405;BME280;49541;57.840;12.306;2023-06-10T05:23:10;101828.50;;;14.81;39.15
63405;BME280;49541;57.840;12.306;2023-06-10T05:28:10;101837.63;;;14.99;38.37
63405;BME280;49541;57.840;12.306;2023-06-10T05:33:11;101826.47;;;14.94;37.64
63405;BME280;49541;57.840;12.306;2023-06-10T05:38:11;101834.31;;;15.38;37.63
63405;BME280;49541;57.840;12.306;2023-06-10T05:43:11;101835.78;;;15.51;37.70
63405;BME280;49541;57.840;12.306;2023-06-10T05:48:11;101838.50;;;16.02;36.38
63405;BME280;49541;57.840;12.306;2023-06-10T05:53:12;101833.72;;;16.25;35.96
63405;BME280;49541;57.840;12.306;2023-06-10T05:58:14;101843.91;;;16.41;36.43
63405;BME280;49541;57.840;12.306;2023-06-10T06:03:15;101829.75;;;16.77;35.62
63405;BME280;49541;57.840;12.306;2023-06-10T06:08:15;101847.84;;;17.14;36.14
63405;BME280;49541;57.840;12.306;2023-06-10T06:13:18;101835.28;;;16.86;35.83
63405;BME280;49541;57.840;12.306;2023-06-10T06:18:18;101836.13;;;16.96;36.31
63405;BME280;49541;57.840;12.306;2023-06-10T06:23:18;101835.09;;;17.07;35.44
63405;BME280;49541;57.840;12.306;2023-06-10T06:28:19;101836.72;;;17.65;35.32
63405;BME280;49541;57.840;12.306;2023-06-10T06:33:21;101841.56;;;18.34;36.24
63405;BME280;49541;57.840;12.306;2023-06-10T06:38:21;101844.03;;;18.46;36.01
63405;BME280;49541;57.840;12.306;2023-06-10T06:43:21;101843.78;;;18.57;36.12
63405;BME280;49541;57.840;12.306;2023-06-10T06:48:21;101841.28;;;18.99;35.52
63405;BME280;49541;57.840;12.306;2023-06-10T06:53:21;101848.38;;;19.00;34.63
63405;BME280;49541;57.840;12.306;2023-06-10T06:58:22;101840.94;;;19.29;33.81
63405;BME280;49541;57.840;12.306;2023-06-10T07:03:22;101836.88;;;18.98;34.20
63405;BME280;49541;57.840;12.306;2023-06-10T07:08:22;101839.53;;;19.16;34.49
63405;BME280;49541;57.840;12.306;2023-06-10T07:13:22;101836.97;;;19.41;33.16
63405;BME280;49541;57.840;12.306;2023-06-10T07:18:22;101828.03;;;19.83;32.82
63405;BME280;49541;57.840;12.306;2023-06-10T07:23:22;101837.53;;;19.87;30.99
63405;BME280;49541;57.840;12.306;2023-06-10T07:28:23;101840.97;;;20.14;31.01
63405;BME280;49541;57.840;12.306;2023-06-10T07:33:23;101839.25;;;19.96;31.31
63405;BME280;49541;57.840;12.306;2023-06-10T07:38:24;101842.25;;;19.93;31.57
63405;BME280;49541;57.840;12.306;2023-06-10T07:43:24;101837.22;;;19.90;31.33
63405;BME280;49541;57.840;12.306;2023-06-10T07:48:24;101839.28;;;20.13;31.45
63405;BME280;49541;57.840;12.306;2023-06-10T07:53:25;101838.91;;;19.99;32.30
63405;BME280;49541;57.840;12.306;2023-06-10T07:58:25;101847.78;;;20.67;29.93
63405;BME280;49541;57.840;12.306;2023-06-10T08:03:25;101851.19;;;20.94;29.18
63405;BME280;49541;57.840;12.306;2023-06-10T08:08:25;101844.03;;;21.17;29.66
63405;BME280;49541;57.840;12.306;2023-06-10T08:13:25;101848.06;;;21.30;29.13
63405;BME280;49541;57.840;12.306;2023-06-10T08:18:25;101839.63;;;21.72;29.41
63405;BME280;49541;57.840;12.306;2023-06-10T08:23:26;101836.56;;;22.38;28.15
63405;BME280;49541;57.840;12.306;2023-06-10T08:28:26;101835.25;;;22.57;27.18
63405;BME280;49541;57.840;12.306;2023-06-10T08:33:26;101841.03;;;22.31;28.13
63405;BME280;49541;57.840;12.306;2023-06-10T08:38:26;101832.91;;;22.68;27.04
63405;BME280;49541;57.840;12.306;2023-06-10T08:48:29;101841.75;;;23.23;26.74
63405;BME280;49541;57.840;12.306;2023-06-10T08:53:31;101830.31;;;23.13;27.18
63405;BME280;49541;57.840;12.306;2023-06-10T08:58:33;101840.22;;;23.36;26.78
63405;BME280;49541;57.840;12.306;2023-06-10T09:03:40;101837.78;;;23.70;27.70
63405;BME280;49541;57.840;12.306;2023-06-10T09:08:41;101830.41;;;23.79;25.29
63405;BME280;49541;57.840;12.306;2023-06-10T09:13:42;101829.13;;;23.97;24.07
63405;BME280;49541;57.840;12.306;2023-06-10T09:18:42;101829.31;;;24.53;24.41
63405;BME280;49541;57.840;12.306;2023-06-10T09:23:42;101828.53;;;24.87;24.61
63405;BME280;49541;57.840;12.306;2023-06-10T09:28:43;101813.22;;;25.14;24.21
63405;BME280;49541;57.840;12.306;2023-06-10T09:33:44;101809.59;;;25.42;23.99
63405;BME280;49541;57.840;12.306;2023-06-10T09:38:44;101811.88;;;25.87;23.61
63405;BME280;49541;57.840;12.306;2023-06-10T09:43:46;101810.78;;;25.74;23.47
63405;BME280;49541;57.840;12.306;2023-06-10T09:48:46;101809.50;;;26.39;24.17
63405;BME280;49541;57.840;12.306;2023-06-10T09:53:47;101798.31;;;26.00;23.91
63405;BME280;49541;57.840;12.306;2023-06-10T09:58:49;101800.72;;;26.57;22.54
63405;BME280;49541;57.840;12.306;2023-06-10T10:03:53;101801.09;;;26.47;22.78
63405;BME280;49541;57.840;12.306;2023-06-10T10:08:53;101794.59;;;26.81;22.32
63405;BME280;49541;57.840;12.306;2023-06-10T10:13:53;101798.84;;;27.49;21.17
63405;BME280;49541;57.840;12.306;2023-06-10T10:18:54;101792.81;;;27.78;19.91
63405;BME280;49541;57.840;12.306;2023-06-10T10:34:02;101784.09;;;28.33;19.92
63405;BME280;49541;57.840;12.306;2023-06-10T10:39:04;101788.19;;;28.49;19.91
63405;BME280;49541;57.840;12.306;2023-06-10T10:44:08;101790.31;;;28.91;19.50
63405;BME280;49541;57.840;12.306;2023-06-10T10:49:10;101785.84;;;29.52;19.14
63405;BME280;49541;57.840;12.306;2023-06-10T10:54:12;101790.81;;;29.25;19.00
63405;BME280;49541;57.840;12.306;2023-06-10T10:59:13;101793.91;;;29.47;18.10
63405;BME280;49541;57.840;12.306;2023-06-10T11:04:13;101791.53;;;30.29;17.77
63405;BME280;49541;57.840;12.306;2023-06-10T11:09:27;101792.41;;;30.53;17.89
63405;BME280;49541;57.840;12.306;2023-06-10T11:14:29;101781.06;;;31.09;17.28
63405;BME280;49541;57.840;12.306;2023-06-10T11:19:36;101777.31;;;31.67;17.00
63405;BME280;49541;57.840;12.306;2023-06-10T11:24:36;101763.97;;;32.04;16.90
63405;BME280;49541;57.840;12.306;2023-06-10T11:29:37;101766.75;;;31.47;16.78
63405;BME280;49541;57.840;12.306;2023-06-10T11:34:37;101768.34;;;31.89;17.50
63405;BME280;49541;57.840;12.306;2023-06-10T11:39:37;101779.16;;;32.92;17.15
63405;BME280;49541;57.840;12.306;2023-06-10T11:44:37;101764.59;;;32.96;16.58
63405;BME280;49541;57.840;12.306;2023-06-10T11:49:38;101760.72;;;33.14;16.23
63405;BME280;49541;57.840;12.306;2023-06-10T11:54:38;101770.75;;;33.03;16.56
63405;BME280;49541;57.840;12.306;2023-06-10T11:59:38;101749.03;;;33.29;16.38
63405;BME280;49541;57.840;12.306;2023-06-10T12:04:40;101751.97;;;33.44;16.65
63405;BME280;49541;57.840;12.306;2023-06-10T12:09:40;101740.19;;;32.32;17.64
63405;BME280;49541;57.840;12.306;2023-06-10T12:14:54;101751.63;;;32.75;17.19
63405;BME280;49541;57.840;12.306;2023-06-10T12:19:54;101731.72;;;31.42;17.51
63405;BME280;49541;57.840;12.306;2023-06-10T12:30:01;101729.56;;;30.69;18.00
63405;BME280;49541;57.840;12.306;2023-06-10T12:35:03;101729.56;;;30.92;18.74
63405;BME280;49541;57.840;12.306;2023-06-10T12:40:04;101721.84;;;32.38;17.02
63405;BME280;49541;57.840;12.306;2023-06-10T12:45:09;101734.78;;;33.37;16.45
63405;BME280;49541;57.840;12.306;2023-06-10T12:50:10;101733.16;;;33.91;15.83
63405;BME280;49541;57.840;12.306;2023-06-10T12:55:12;101734.72;;;34.94;15.37
63405;BME280;49541;57.840;12.306;2023-06-10T13:00:12;101729.38;;;34.34;16.05
63405;BME280;49541;57.840;12.306;2023-06-10T13:05:14;101724.25;;;34.53;16.20
63405;BME280;49541;57.840;12.306;2023-06-10T13:10:14;101710.25;;;33.14;16.93
63405;BME280;49541;57.840;12.306;2023-06-10T13:15:16;101708.63;;;33.67;16.67
63405;BME280;49541;57.840;12.306;2023-06-10T13:20:16;101708.53;;;35.17;15.69
63405;BME280;49541;57.840;12.306;2023-06-10T13:25:17;101693.28;;;34.56;15.31
63405;BME280;49541;57.840;12.306;2023-06-10T13:30:17;101689.59;;;35.97;14.89
63405;BME280;49541;57.840;12.306;2023-06-10T13:35:17;101689.84;;;36.21;14.79
63405;BME280;49541;57.840;12.306;2023-06-10T13:40:18;101686.53;;;35.88;14.22
63405;BME280;49541;57.840;12.306;2023-06-10T13:45:19;101690.09;;;36.35;13.93
63405;BME280;49541;57.840;12.306;2023-06-10T13:50:20;101677.09;;;36.20;14.54
63405;BME280;49541;57.840;12.306;2023-06-10T13:55:20;101680.31;;;35.15;14.94
63405;BME280;49541;57.840;12.306;2023-06-10T14:00:20;101674.03;;;34.72;15.18
63405;BME280;49541;57.840;12.306;2023-06-10T14:05:21;101667.91;;;34.59;14.77
63405;BME280;49541;57.840;12.306;2023-06-10T14:10:21;101656.09;;;35.73;14.50
63405;BME280;49541;57.840;12.306;2023-06-10T14:15:22;101652.75;;;35.92;13.54
63405;BME280;49541;57.840;12.306;2023-06-10T14:20:22;101658.28;;;35.76;13.68
63405;BME280;49541;57.840;12.306;2023-06-10T14:25:23;101647.66;;;35.12;13.26
63405;BME280;49541;57.840;12.306;2023-06-10T14:30:23;101653.09;;;34.86;13.51
63405;BME280;49541;57.840;12.306;2023-06-10T14:35:23;101642.78;;;35.65;12.33
63405;BME280;49541;57.840;12.306;2023-06-10T14:40:23;101649.59;;;35.11;14.19
63405;BME280;49541;57.840;12.306;2023-06-10T14:45:26;101643.59;;;33.81;14.60
63405;BME280;49541;57.840;12.306;2023-06-10T14:50:26;101650.19;;;33.48;14.19
63405;BME280;49541;57.840;12.306;2023-06-10T14:55:26;101638.53;;;34.48;12.94
63405;BME280;49541;57.840;12.306;2023-06-10T15:00:26;101633.25;;;35.04;12.18
63405;BME280;49541;57.840;12.306;2023-06-10T15:05:27;101626.75;;;34.15;13.70
63405;BME280;49541;57.840;12.306;2023-06-10T15:10:27;101628.34;;;34.11;13.40
63405;BME280;49541;57.840;12.306;2023-06-10T15:15:27;101625.50;;;33.36;14.44
63405;BME280;49541;57.840;12.306;2023-06-10T15:20:27;101625.78;;;33.62;14.21
63405;BME280;49541;57.840;12.306;2023-06-10T15:25:27;101616.91;;;34.35;14.10
63405;BME280;49541;57.840;12.306;2023-06-10T15:30:27;101610.38;;;34.09;12.65
63405;BME280;49541;57.840;12.306;2023-06-10T15:35:28;101617.44;;;33.89;13.26
63405;BME280;49541;57.840;12.306;2023-06-10T15:40:28;101611.66;;;33.91;13.82
63405;BME280;49541;57.840;12.306;2023-06-10T15:45:29;101599.28;;;33.34;13.48
63405;BME280;49541;57.840;12.306;2023-06-10T15:50:29;101598.31;;;33.18;14.20
63405;BME280;49541;57.840;12.306;2023-06-10T15:55:29;101583.59;;;33.34;13.36
63405;BME280;49541;57.840;12.306;2023-06-10T16:00:30;101595.16;;;33.36;13.83
63405;BME280;49541;57.840;12.306;2023-06-10T16:05:30;101586.47;;;33.50;14.42
63405;BME280;49541;57.840;12.306;2023-06-10T16:10:30;101594.66;;;33.12;14.70
63405;BME280;49541;57.840;12.306;2023-06-10T16:15:30;101592.38;;;33.31;13.44
63405;BME280;49541;57.840;12.306;2023-06-10T16:20:31;101580.75;;;33.29;14.19
63405;BME280;49541;57.840;12.306;2023-06-10T16:25:31;101584.84;;;32.72;14.42
63405;BME280;49541;57.840;12.306;2023-06-10T16:30:33;101581.75;;;32.69;13.93
63405;BME280;49541;57.840;12.306;2023-06-10T16:35:34;101582.63;;;32.96;14.59
63405;BME280;49541;57.840;12.306;2023-06-10T16:40:34;101577.00;;;32.42;14.63
63405;BME280;49541;57.840;12.306;2023-06-10T16:45:34;101579.59;;;32.71;14.94
63405;BME280;49541;57.840;12.306;2023-06-10T16:50:35;101577.78;;;31.81;16.38
63405;BME280;49541;57.840;12.306;2023-06-10T16:55:35;101573.75;;;32.06;14.67
63405;BME280;49541;57.840;12.306;2023-06-10T17:00:38;101582.78;;;31.51;13.78
63405;BME280;49541;57.840;12.306;2023-06-10T17:05:38;101562.78;;;30.81;13.88
63405;BME280;49541;57.840;12.306;2023-06-10T17:10:39;101563.97;;;30.33;16.11
63405;BME280;49541;57.840;12.306;2023-06-10T17:15:40;101567.22;;;30.70;16.59
63405;BME280;49541;57.840;12.306;2023-06-10T17:20:40;101570.72;;;30.54;18.15
63405;BME280;49541;57.840;12.306;2023-06-10T17:25:41;101569.31;;;30.80;16.36
63405;BME280;49541;57.840;12.306;2023-06-10T17:30:41;101572.72;;;29.94;19.05
63405;BME280;49541;57.840;12.306;2023-06-10T17:35:42;101568.50;;;30.27;18.28
63405;BME280;49541;57.840;12.306;2023-06-10T17:40:42;101575.41;;;30.82;17.97
63405;BME280;49541;57.840;12.306;2023-06-10T17:45:43;101576.38;;;29.76;19.58
63405;BME280;49541;57.840;12.306;2023-06-10T17:50:43;101568.75;;;29.25;18.75
63405;BME280;49541;57.840;12.306;2023-06-10T17:55:43;101572.94;;;29.81;17.01
63405;BME280;49541;57.840;12.306;2023-06-10T18:00:43;101579.13;;;30.00;16.81
63405;BME280;49541;57.840;12.306;2023-06-10T18:05:44;101581.97;;;29.16;18.15
63405;BME280;49541;57.840;12.306;2023-06-10T18:10:44;101578.00;;;29.12;19.67
63405;BME280;49541;57.840;12.306;2023-06-10T18:15:44;101583.66;;;29.29;20.02
63405;BME280;49541;57.840;12.306;2023-06-10T18:20:45;101578.91;;;29.24;20.20
63405;BME280;49541;57.840;12.306;2023-06-10T18:25:45;101577.44;;;28.91;19.96
63405;BME280;49541;57.840;12.306;2023-06-10T18:30:45;101583.38;;;28.88;19.49
63405;BME280;49541;57.840;12.306;2023-06-10T18:35:46;101585.97;;;28.83;20.14
63405;BME280;49541;57.840;12.306;2023-06-10T18:40:46;101584.75;;;28.24;21.41
63405;BME280;49541;57.840;12.306;2023-06-10T18:45:46;101576.22;;;28.13;21.73
63405;BME280;49541;57.840;12.306;2023-06-10T18:50:46;101579.50;;;28.41;21.69
63405;BME280;49541;57.840;12.306;2023-06-10T18:55:46;101584.00;;;28.16;22.10
63405;BME280;49541;57.840;12.306;2023-06-10T19:00:47;101583.50;;;28.01;22.86
63405;BME280;49541;57.840;12.306;2023-06-10T19:05:47;101585.13;;;27.58;23.76
63405;BME280;49541;57.840;12.306;2023-06-10T19:10:47;101589.88;;;27.38;23.68
63405;BME280;49541;57.840;12.306;2023-06-10T19:15:47;101591.00;;;26.85;24.04
63405;BME280;49541;57.840;12.306;2023-06-10T19:20:48;101593.81;;;26.52;24.61
63405;BME280;49541;57.840;12.306;2023-06-10T19:25:48;101590.72;;;26.42;24.46
63405;BME280;49541;57.840;12.306;2023-06-10T19:30:48;101601.69;;;26.15;24.73
63405;BME280;49541;57.840;12.306;2023-06-10T19:35:48;101603.78;;;26.06;24.63
63405;BME280;49541;57.840;12.306;2023-06-10T19:40:48;101611.34;;;25.91;24.99
63405;BME280;49541;57.840;12.306;2023-06-10T19:45:49;101618.06;;;25.68;25.03
63405;BME280;49541;57.840;12.306;2023-06-10T19:50:49;101615.22;;;24.73;25.79
63405;BME280;49541;57.840;12.306;2023-06-10T19:55:49;101623.56;;;24.59;25.70
63405;BME280;49541;57.840;12.306;2023-06-10T20:00:49;101630.69;;;24.03;26.25
63405;BME280;49541;57.840;12.306;2023-06-10T20:05:50;101629.22;;;23.79;26.17
63405;BME280;49541;57.840;12.306;2023-06-10T20:10:50;101635.88;;;23.77;26.14
63405;BME280;49541;57.840;12.306;2023-06-10T20:15:50;101635.78;;;23.48;25.97
63405;BME280;49541;57.840;12.306;2023-06-10T20:20:51;101644.94;;;23.62;25.63
63405;BME280;49541;57.840;12.306;2023-06-10T20:25:51;101649.13;;;23.07;26.98
63405;BME280;49541;57.840;12.306;2023-06-10T20:30:51;101659.41;;;22.37;28.10
63405;BME280;49541;57.840;12.306;2023-06-10T20:35:51;101662.78;;;22.54;27.51
63405;BME280;49541;57.840;12.306;2023-06-10T20:40:52;101674.28;;;22.41;27.62
63405;BME280;49541;57.840;12.306;2023-06-10T20:45:52;101672.69;;;22.47;26.61
63405;BME280;49541;57.840;12.306;2023-06-10T20:50:52;101681.41;;;22.57;26.30
63405;BME280;49541;57.840;12.306;2023-06-10T20:55:52;101690.13;;;21.68;28.76
63405;BME280;49541;57.840;12.306;2023-06-10T21:00:52;101712.47;;;21.71;29.40
63405;BME280;49541;57.840;12.306;2023-06-10T21:05:57;101718.66;;;21.17;29.43
63405;BME280;49541;57.840;12.306;2023-06-10T21:10:58;101713.38;;;21.86;26.80
63405;BME280;49541;57.840;12.306;2023-06-10T21:15:58;101724.88;;;21.25;28.10
63405;BME280;49541;57.840;12.306;2023-06-10T21:20:58;101734.78;;;21.02;27.68
63405;BME280;49541;57.840;12.306;2023-06-10T21:25:58;101736.06;;;20.42;29.46
63405;BME280;49541;57.840;12.306;2023-06-10T21:30:59;101738.25;;;20.22;29.34
63405;BME280;49541;57.840;12.306;2023-06-10T21:35:59;101752.44;;;20.16;29.61
63405;BME280;49541;57.840;12.306;2023-06-10T21:40:59;101750.38;;;19.85;29.38
63405;BME280;49541;57.840;12.306;2023-06-10T21:46:00;101747.56;;;20.11;28.73
63405;BME280;49541;57.840;12.306;2023-06-10T21:51:00;101752.84;;;19.62;30.33
63405;BME280;49541;57.840;12.306;2023-06-10T21:56:00;101758.00;;;19.90;29.30
63405;BME280;49541;57.840;12.306;2023-06-10T22:01:00;101758.91;;;19.64;29.46
63405;BME280;49541;57.840;12.306;2023-06-10T22:06:01;101773.84;;;19.42;30.04
63405;BME280;49541;57.840;12.306;2023-06-10T22:11:02;101784.63;;;19.34;30.42
63405;BME280;49541;57.840;12.306;2023-06-10T22:16:02;101777.47;;;18.90;30.25
63405;BME280;49541;57.840;12.306;2023-06-10T22:21:02;101784.00;;;19.14;29.87
63405;BME280;49541;57.840;12.306;2023-06-10T22:26:03;101781.25;;;18.97;30.32
63405;BME280;49541;57.840;12.306;2023-06-10T22:31:04;101785.16;;;18.59;30.39
63405;BME280;49541;57.840;12.306;2023-06-10T22:36:04;101783.16;;;18.61;30.35
63405;BME280;49541;57.840;12.306;2023-06-10T22:41:04;101796.63;;;18.43;30.21
63405;BME280;49541;57.840;12.306;2023-06-10T22:46:04;101798.19;;;18.46;30.16
63405;BME280;49541;57.840;12.306;2023-06-10T22:51:05;101803.97;;;18.15;30.34
63405;BME280;49541;57.840;12.306;2023-06-10T22:56:05;101815.75;;;18.14;30.31
63405;BME280;49541;57.840;12.306;2023-06-10T23:01:05;101816.16;;;17.64;32.03
63405;BME280;49541;57.840;12.306;2023-06-10T23:06:05;101811.59;;;17.46;31.15
63405;BME280;49541;57.840;12.306;2023-06-10T23:11:06;101819.81;;;17.45;31.90
63405;BME280;49541;57.840;12.306;2023-06-10T23:16:06;101824.50;;;17.43;31.79
63405;BME280;49541;57.840;12.306;2023-06-10T23:21:07;101824.75;;;17.49;32.19
63405;BME280;49541;57.840;12.306;2023-06-10T23:26:08;101831.13;;;17.11;33.06
63405;BME280;49541;57.840;12.306;2023-06-10T23:31:08;101823.50;;;16.96;32.34
63405;BME280;49541;57.840;12.306;2023-06-10T23:36:08;101837.00;;;16.87;33.28
63405;BME280;49541;57.840;12.306;2023-06-10T23:41:10;101835.41;;;17.04;32.60
63405;BME280;49541;57.840;12.306;2023-06-10T23:46:11;101826.66;;;16.53;33.59
63405;BME280;49541;57.840;12.306;2023-06-10T23:51:11;101831.75;;;16.46;33.63
63405;BME280;49541;57.840;12.306;2023-06-10T23:56:12;101837.13;;;16.46;34.02
